Helmville, Montana
Current Conditions -  °F | °C
As of 4:53 PM on Monday 22 Dec 2014 (Local Time) from KHLN Reporting Station
Broken Clouds Broken Clouds  
Wind Chill: 28°   Ceiling: 9000
Heat Index: 37°   Visibility: 10mi
Dew Point: 21°   Wind: 15mph
Humidity: 52%   Direction: 280°W
Pressure: 30.04"   Gusts: NA
Location:  46.87°N, 112.96°W
Report Text: KHLN 222353Z 28013KT 10SM BKN090 BKN100 03/M06 A3004 RMK AO2 SLP208 T00281061 10050 20028 53029
Loading
Personal Weather Stations






























Interactive Weather Map New forecast layout! Learn more

10-Day Weather Forecast

Advertisements
Track Severe Weather on mobile